createdAt,value
2023-03-26T00:00:23.037Z,995.1
2023-03-26T00:01:23.038Z,995.0
2023-03-26T00:02:23.325Z,995.0
2023-03-26T00:03:23.075Z,995.2
2023-03-26T00:04:23.075Z,995.1
2023-03-26T00:05:23.212Z,995.1
2023-03-26T00:06:23.088Z,995.1
2023-03-26T00:07:23.101Z,995.1
2023-03-26T00:08:23.118Z,995.2
2023-03-26T00:09:23.134Z,995.1
2023-03-26T00:10:23.140Z,995.1
2023-03-26T00:11:23.158Z,995.0
2023-03-26T00:12:23.164Z,995.2
2023-03-26T00:13:23.172Z,995.2
2023-03-26T00:14:23.176Z,995.2
2023-03-26T00:15:23.194Z,995.2
2023-03-26T00:16:23.250Z,995.2
2023-03-26T00:17:23.233Z,995.2
2023-03-26T00:18:23.241Z,995.3
2023-03-26T00:19:23.271Z,995.2
2023-03-26T00:20:23.255Z,995.2
2023-03-26T00:21:23.263Z,995.4
2023-03-26T00:22:23.283Z,995.4
2023-03-26T00:23:23.299Z,995.4
2023-03-26T00:24:23.312Z,995.3
2023-03-26T00:25:23.312Z,995.3
2023-03-26T00:26:23.339Z,995.3
2023-03-26T00:27:23.341Z,995.4
2023-03-26T00:28:23.373Z,995.3
2023-03-26T00:29:23.370Z,995.4
2023-03-26T00:30:23.386Z,995.3
2023-03-26T00:31:23.447Z,995.4
2023-03-26T00:32:23.391Z,995.5
2023-03-26T00:33:23.414Z,995.5
2023-03-26T00:34:23.427Z,995.5
2023-03-26T00:35:23.437Z,995.5
2023-03-26T00:36:23.510Z,995.5
2023-03-26T00:37:23.473Z,995.5
2023-03-26T00:38:23.494Z,995.5
2023-03-26T00:39:23.493Z,995.5
2023-03-26T00:40:23.549Z,995.5
2023-03-26T00:41:23.538Z,995.6
2023-03-26T00:42:23.543Z,995.5
2023-03-26T00:43:23.553Z,995.6
2023-03-26T01:01:24.173Z,995.7
2023-03-26T01:02:23.887Z,995.6
2023-03-26T01:03:28.407Z,995.6
2023-03-26T01:04:24.322Z,995.7
2023-03-26T01:05:23.913Z,995.7
2023-03-26T01:06:23.808Z,995.7
2023-03-26T01:07:23.815Z,995.7
2023-03-26T01:08:23.831Z,995.7
2023-03-26T01:09:23.909Z,995.7
2023-03-26T01:10:23.861Z,995.7
2023-03-26T01:11:23.923Z,995.7
2023-03-26T01:12:23.908Z,995.7
2023-03-26T01:13:23.901Z,995.7
2023-03-26T01:14:24.067Z,995.8
2023-03-26T01:15:23.915Z,995.8
2023-03-26T01:16:24.034Z,995.8
2023-03-26T01:17:24.170Z,995.8
2023-03-26T01:18:23.951Z,995.8
2023-03-26T01:19:23.959Z,995.7
2023-03-26T01:20:23.975Z,995.8
2023-03-26T01:21:23.998Z,995.8
2023-03-26T01:22:24.021Z,995.8
2023-03-26T01:23:24.019Z,995.8
2023-03-26T01:24:24.102Z,995.8
2023-03-26T01:25:24.056Z,995.8
2023-03-26T01:26:24.063Z,995.9
2023-03-26T01:27:24.087Z,995.8
2023-03-26T01:28:24.101Z,995.9
2023-03-26T01:29:24.124Z,995.9
2023-03-26T01:30:24.129Z,996.0
2023-03-26T01:31:24.147Z,995.9
2023-03-26T01:32:24.402Z,996.0
2023-03-26T01:33:24.318Z,995.9
2023-03-26T01:34:24.189Z,996.0
2023-03-26T01:35:24.323Z,995.9
2023-03-26T01:36:24.206Z,995.9
2023-03-26T01:37:24.220Z,995.9
2023-03-26T01:38:24.232Z,995.9
2023-03-26T01:39:24.244Z,995.9
2023-03-26T01:40:24.281Z,996.0
2023-03-26T01:41:24.275Z,996.0
2023-03-26T01:42:24.277Z,996.0
2023-03-26T01:43:24.314Z,996.0
2023-03-26T01:44:24.310Z,996.0
2023-03-26T01:45:24.316Z,996.2
2023-03-26T01:46:24.374Z,996.1
2023-03-26T01:47:24.368Z,996.1
2023-03-26T01:48:24.339Z,996.1
2023-03-26T01:49:24.356Z,996.0
2023-03-26T01:50:24.346Z,996.2
2023-03-26T01:51:24.361Z,996.2
2023-03-26T01:52:24.368Z,996.1
2023-03-26T01:53:24.379Z,996.1
2023-03-26T01:54:24.391Z,996.1
2023-03-26T01:55:24.391Z,996.1
2023-03-26T01:56:24.402Z,996.0
2023-03-26T01:57:24.418Z,996.1
2023-03-26T01:58:24.422Z,996.1
2023-03-26T01:59:24.426Z,996.1
2023-03-26T02:00:24.473Z,996.2
2023-03-26T02:01:24.703Z,996.2
2023-03-26T02:02:24.763Z,996.2
2023-03-26T02:03:24.671Z,996.3
2023-03-26T02:04:24.467Z,996.3
2023-03-26T02:05:24.479Z,996.3
2023-03-26T02:06:24.470Z,996.1
2023-03-26T02:07:24.482Z,996.2
2023-03-26T02:08:24.493Z,996.3
2023-03-26T02:09:24.493Z,996.2
2023-03-26T02:10:24.511Z,996.3
2023-03-26T02:11:35.848Z,996.3
2023-03-26T02:12:24.514Z,996.3
2023-03-26T02:13:24.534Z,996.3
2023-03-26T02:14:24.531Z,996.3
2023-03-26T02:15:24.540Z,996.3
2023-03-26T02:16:24.632Z,996.3
2023-03-26T02:17:24.803Z,996.3
2023-03-26T02:18:24.563Z,996.3
2023-03-26T02:19:24.602Z,996.4
2023-03-26T02:20:24.580Z,996.3
2023-03-26T02:21:24.588Z,996.3
2023-03-26T02:22:24.593Z,996.3
2023-03-26T02:23:24.613Z,996.3
2023-03-26T02:24:24.614Z,996.3
2023-03-26T02:25:24.651Z,996.3
2023-03-26T02:26:24.631Z,996.3
2023-03-26T02:27:24.634Z,996.3
2023-03-26T02:28:24.674Z,996.4
2023-03-26T02:29:24.656Z,996.3
2023-03-26T02:30:24.668Z,996.3
2023-03-26T02:31:24.782Z,996.2
2023-03-26T02:32:26.747Z,996.3
2023-03-26T02:33:24.697Z,996.3
2023-03-26T02:34:24.689Z,996.2
2023-03-26T02:35:24.898Z,996.2
2023-03-26T02:36:24.977Z,996.2
2023-03-26T02:37:24.718Z,996.2
2023-03-26T02:38:24.723Z,996.3
2023-03-26T02:39:24.743Z,996.1
2023-03-26T02:40:24.781Z,996.3
2023-03-26T02:41:24.799Z,996.2
2023-03-26T02:42:24.773Z,996.3
2023-03-26T02:43:24.769Z,996.3
2023-03-26T02:44:24.784Z,996.3
2023-03-26T02:45:24.780Z,996.2
2023-03-26T02:46:24.854Z,996.3
2023-03-26T02:47:24.913Z,996.3
2023-03-26T02:48:24.826Z,996.2
2023-03-26T02:49:24.855Z,996.3
2023-03-26T02:50:24.815Z,996.4
2023-03-26T02:51:24.838Z,996.3
2023-03-26T02:52:24.847Z,996.2
2023-03-26T02:53:24.854Z,996.3
2023-03-26T02:54:24.851Z,996.2
2023-03-26T02:55:24.876Z,996.2
2023-03-26T02:56:24.873Z,996.3
2023-03-26T02:57:24.881Z,996.3
2023-03-26T02:58:24.888Z,996.3
2023-03-26T02:59:24.904Z,996.2
2023-03-26T03:00:24.897Z,996.3
2023-03-26T03:01:25.013Z,996.3
2023-03-26T03:02:25.009Z,996.3
2023-03-26T03:03:24.977Z,996.3
2023-03-26T03:04:24.920Z,996.2
2023-03-26T03:05:24.934Z,996.4
2023-03-26T03:06:24.946Z,996.3
2023-03-26T03:07:24.940Z,996.4
2023-03-26T03:08:24.978Z,996.5
2023-03-26T03:09:24.980Z,996.4
2023-03-26T03:10:24.957Z,996.4
2023-03-26T03:11:25.253Z,996.4
2023-03-26T03:12:24.966Z,996.4
2023-03-26T03:13:24.971Z,996.5
2023-03-26T03:14:24.983Z,996.4
2023-03-26T03:15:24.989Z,996.4
2023-03-26T03:16:25.106Z,996.5
2023-03-26T03:17:25.090Z,996.4
2023-03-26T03:18:25.113Z,996.4
2023-03-26T03:19:25.011Z,996.4
2023-03-26T03:20:25.022Z,996.4
2023-03-26T03:21:25.026Z,996.4
2023-03-26T03:22:25.043Z,996.3
2023-03-26T03:23:25.042Z,996.4
2023-03-26T03:24:25.106Z,996.4
2023-03-26T03:25:25.051Z,996.4
2023-03-26T03:26:25.072Z,996.3
2023-03-26T03:27:25.077Z,996.3
2023-03-26T03:28:25.066Z,996.4
2023-03-26T03:29:25.085Z,996.3
2023-03-26T03:30:25.089Z,996.4
2023-03-26T03:31:25.194Z,996.4
2023-03-26T03:32:25.192Z,996.3
2023-03-26T03:33:25.117Z,996.4
2023-03-26T03:34:25.139Z,996.3
2023-03-26T03:35:25.194Z,996.3
2023-03-26T03:36:25.141Z,996.3
2023-03-26T03:37:25.145Z,996.3
2023-03-26T03:38:25.144Z,996.4
2023-03-26T03:39:25.150Z,996.3
2023-03-26T03:40:25.184Z,996.4
2023-03-26T03:41:25.164Z,996.3
2023-03-26T03:42:25.181Z,996.3
2023-03-26T03:43:25.180Z,996.3
2023-03-26T03:44:25.186Z,996.4
2023-03-26T03:45:25.190Z,996.3
2023-03-26T03:46:25.293Z,996.4
2023-03-26T03:47:25.306Z,996.4
2023-03-26T03:48:25.233Z,996.4
2023-03-26T03:49:25.240Z,996.5
2023-03-26T03:50:25.245Z,996.5
2023-03-26T03:51:25.241Z,996.4
2023-03-26T03:52:25.251Z,996.5
2023-03-26T03:53:25.251Z,996.4
2023-03-26T03:54:25.262Z,996.5
2023-03-26T03:55:25.267Z,996.5
2023-03-26T03:56:25.274Z,996.5
2023-03-26T03:57:25.275Z,996.5
2023-03-26T03:58:25.285Z,996.4
2023-03-26T03:59:25.293Z,996.5
2023-03-26T04:00:25.316Z,996.5
2023-03-26T04:01:25.325Z,996.4
2023-03-26T04:02:25.435Z,996.3
2023-03-26T04:03:34.706Z,996.4
2023-03-26T04:04:25.380Z,996.4
2023-03-26T04:05:25.320Z,996.4
2023-03-26T04:06:25.364Z,996.4
2023-03-26T04:07:25.332Z,996.3
2023-03-26T04:08:25.343Z,996.3
2023-03-26T04:09:25.354Z,996.5
2023-03-26T04:10:25.364Z,996.4
2023-03-26T04:11:25.395Z,996.5
2023-03-26T04:12:25.373Z,996.5
2023-03-26T04:13:25.380Z,996.4
2023-03-26T04:14:25.394Z,996.5
2023-03-26T04:15:25.404Z,996.5
2023-03-26T04:16:25.511Z,996.4
2023-03-26T04:17:25.513Z,996.4
2023-03-26T04:18:25.425Z,996.3
2023-03-26T04:19:25.429Z,996.4
2023-03-26T04:20:25.455Z,996.4
2023-03-26T04:21:25.443Z,996.4
2023-03-26T04:22:25.451Z,996.4
2023-03-26T04:23:25.458Z,996.3
2023-03-26T04:24:25.469Z,996.3
2023-03-26T04:25:25.473Z,996.3
2023-03-26T04:26:25.476Z,996.4
2023-03-26T04:27:25.538Z,996.3
2023-03-26T04:28:25.502Z,996.3
2023-03-26T04:29:25.511Z,996.2
2023-03-26T04:30:25.542Z,996.3
2023-03-26T04:31:25.557Z,996.2
2023-03-26T04:32:25.565Z,996.2
2023-03-26T04:33:25.531Z,996.2
2023-03-26T04:34:25.550Z,996.3
2023-03-26T04:35:25.618Z,996.2
2023-03-26T04:36:25.549Z,996.2
2023-03-26T04:37:25.557Z,996.2
2023-03-26T04:38:25.560Z,996.2
2023-03-26T04:39:25.569Z,996.2
2023-03-26T04:40:25.573Z,996.2
2023-03-26T04:41:25.576Z,996.2
2023-03-26T04:42:25.586Z,996.2
2023-03-26T04:43:25.592Z,996.3
2023-03-26T04:44:25.602Z,996.3
2023-03-26T04:45:25.613Z,996.3
2023-03-26T04:46:25.662Z,996.3
2023-03-26T04:47:25.652Z,996.2
2023-03-26T04:48:25.626Z,996.2
2023-03-26T04:49:25.631Z,996.1
2023-03-26T04:50:25.638Z,996.2
2023-03-26T04:51:25.831Z,996.2
2023-03-26T04:52:25.671Z,996.2
2023-03-26T04:53:25.670Z,996.3
2023-03-26T04:54:25.674Z,996.4
2023-03-26T04:55:25.717Z,996.3
2023-03-26T04:56:25.704Z,996.3
2023-03-26T04:57:25.726Z,996.3
2023-03-26T04:58:25.707Z,996.3
2023-03-26T04:59:25.704Z,996.3
2023-03-26T05:00:25.713Z,996.3
2023-03-26T05:01:25.772Z,996.4
2023-03-26T05:02:25.773Z,996.3
2023-03-26T05:03:25.770Z,996.3
2023-03-26T05:04:25.841Z,996.4
2023-03-26T05:05:25.760Z,996.2
2023-03-26T05:06:25.765Z,996.3
2023-03-26T05:07:25.777Z,996.4
2023-03-26T05:08:25.802Z,996.3
2023-03-26T05:09:25.787Z,996.3
2023-03-26T05:10:25.795Z,996.2
2023-03-26T05:11:25.793Z,996.3
2023-03-26T05:12:25.812Z,996.2
2023-03-26T05:13:25.817Z,996.3
2023-03-26T05:14:25.817Z,996.2
2023-03-26T05:15:25.840Z,996.3
2023-03-26T05:16:25.997Z,996.3
2023-03-26T05:17:25.950Z,996.2
2023-03-26T05:18:25.849Z,996.3
2023-03-26T05:19:25.855Z,996.3
2023-03-26T05:20:25.863Z,996.3
2023-03-26T05:21:25.892Z,996.3
2023-03-26T05:22:25.893Z,996.3
2023-03-26T05:23:25.891Z,996.3
2023-03-26T05:24:25.893Z,996.3
2023-03-26T05:25:25.901Z,996.3
2023-03-26T05:26:25.907Z,996.3
2023-03-26T05:27:25.927Z,996.3
2023-03-26T05:28:25.921Z,996.3
2023-03-26T05:29:25.921Z,996.4
2023-03-26T05:30:25.943Z,996.4
2023-03-26T05:31:25.940Z,996.5
2023-03-26T05:32:25.970Z,996.4
2023-03-26T05:33:26.132Z,996.3
2023-03-26T05:34:25.960Z,996.4
2023-03-26T05:35:26.092Z,996.4
2023-03-26T05:36:25.995Z,996.4
2023-03-26T05:37:25.999Z,996.4
2023-03-26T05:38:25.997Z,996.5
2023-03-26T05:39:26.064Z,996.5
2023-03-26T05:40:26.024Z,996.4
2023-03-26T05:41:26.016Z,996.5
2023-03-26T05:42:26.029Z,996.4
2023-03-26T05:43:26.030Z,996.4
2023-03-26T05:44:26.032Z,996.5
2023-03-26T05:45:26.039Z,996.5
2023-03-26T05:46:26.132Z,996.4
2023-03-26T05:47:26.091Z,996.5
2023-03-26T05:48:26.053Z,996.5
2023-03-26T05:49:26.073Z,996.5
2023-03-26T05:50:26.067Z,996.5
2023-03-26T05:51:26.073Z,996.4
2023-03-26T05:52:26.097Z,996.5
2023-03-26T05:53:26.102Z,996.5
2023-03-26T05:54:26.097Z,996.4
2023-03-26T05:55:26.096Z,996.5
2023-03-26T05:56:26.098Z,996.4
2023-03-26T05:57:26.109Z,996.5
2023-03-26T05:58:26.139Z,996.5
2023-03-26T05:59:26.127Z,996.5
2023-03-26T06:00:26.136Z,996.5
2023-03-26T06:01:26.138Z,996.5
2023-03-26T06:02:26.194Z,996.5
2023-03-26T06:03:26.358Z,996.5
2023-03-26T06:04:26.287Z,996.5
2023-03-26T06:05:26.160Z,996.5
2023-03-26T06:06:26.168Z,996.6
2023-03-26T06:07:26.167Z,996.6
2023-03-26T06:08:26.179Z,996.6
2023-03-26T06:09:26.185Z,996.6
2023-03-26T06:10:26.197Z,996.6
2023-03-26T06:11:26.297Z,996.6
2023-03-26T06:12:26.212Z,996.6
2023-03-26T06:13:26.228Z,996.6
2023-03-26T06:14:26.230Z,996.5
2023-03-26T06:15:26.227Z,996.6
2023-03-26T06:16:28.646Z,996.6
2023-03-26T06:17:26.253Z,996.6
2023-03-26T06:18:26.331Z,996.5
2023-03-26T06:19:26.262Z,996.5
2023-03-26T06:20:26.316Z,996.7
2023-03-26T06:21:26.292Z,996.6
2023-03-26T06:22:26.302Z,996.6
2023-03-26T06:23:26.295Z,996.6
2023-03-26T06:24:26.302Z,996.5
2023-03-26T06:25:26.307Z,996.6
2023-03-26T06:26:26.331Z,996.7
2023-03-26T06:27:26.332Z,996.7
2023-03-26T06:28:26.339Z,996.6
2023-03-26T06:29:26.348Z,996.7
2023-03-26T06:30:26.480Z,996.7
2023-03-26T06:31:26.410Z,996.7
2023-03-26T06:32:26.417Z,996.7
2023-03-26T06:33:26.374Z,996.6
2023-03-26T06:34:26.394Z,996.8
2023-03-26T06:35:26.426Z,996.7
2023-03-26T06:36:26.413Z,996.8
2023-03-26T06:37:26.415Z,996.8
2023-03-26T06:38:26.447Z,996.8
2023-03-26T06:39:26.432Z,996.7
2023-03-26T06:40:26.462Z,996.8
2023-03-26T06:41:26.469Z,996.8
2023-03-26T06:43:06.595Z,996.8
2023-03-26T06:43:26.468Z,996.8
2023-03-26T06:44:26.483Z,996.8
2023-03-26T06:45:26.484Z,996.7
2023-03-26T06:46:26.582Z,996.8
2023-03-26T06:47:26.617Z,996.8
2023-03-26T06:48:26.504Z,996.8
2023-03-26T06:49:26.518Z,996.8
2023-03-26T06:50:26.532Z,996.9
2023-03-26T06:51:26.534Z,996.8
2023-03-26T06:52:26.545Z,996.8
2023-03-26T06:53:26.559Z,996.9
2023-03-26T06:54:26.572Z,996.8
2023-03-26T06:55:26.577Z,996.9
2023-03-26T06:56:26.587Z,996.8
2023-03-26T06:57:26.580Z,996.8
2023-03-26T06:58:26.596Z,996.9
2023-03-26T06:59:26.616Z,996.9
2023-03-26T07:00:26.618Z,996.9
2023-03-26T07:01:26.745Z,996.9
2023-03-26T07:02:26.706Z,996.9
2023-03-26T07:03:26.636Z,996.9
2023-03-26T07:04:26.717Z,996.9
2023-03-26T07:05:26.650Z,996.9
2023-03-26T07:06:26.674Z,996.9
2023-03-26T07:07:26.667Z,997.0
2023-03-26T07:08:26.697Z,996.9
2023-03-26T07:09:26.676Z,996.9
2023-03-26T07:10:26.683Z,996.9
2023-03-26T07:11:26.687Z,996.9
2023-03-26T07:12:26.697Z,996.9
2023-03-26T07:13:26.716Z,997.0
2023-03-26T07:14:26.713Z,997.0
2023-03-26T07:15:26.727Z,996.9
2023-03-26T07:16:26.845Z,997.0
2023-03-26T07:17:26.748Z,996.9
2023-03-26T07:18:26.738Z,996.8
2023-03-26T07:19:26.737Z,996.9
2023-03-26T07:20:26.780Z,996.9
2023-03-26T07:21:26.762Z,997.0
2023-03-26T07:22:26.765Z,996.9
2023-03-26T07:23:26.787Z,996.9
2023-03-26T07:24:26.783Z,996.8
2023-03-26T07:25:26.780Z,996.9
2023-03-26T07:26:26.788Z,996.9
2023-03-26T07:27:26.793Z,996.8
2023-03-26T07:28:26.847Z,996.9
2023-03-26T07:29:26.801Z,996.8
2023-03-26T07:30:26.827Z,996.9
2023-03-26T07:31:26.841Z,996.9
2023-03-26T07:32:26.885Z,996.9
2023-03-26T07:33:26.837Z,996.9
2023-03-26T07:34:26.896Z,996.9
2023-03-26T07:35:26.911Z,996.9
2023-03-26T07:36:26.914Z,997.0
2023-03-26T07:37:26.903Z,997.1
2023-03-26T07:38:26.884Z,997.0
2023-03-26T07:39:28.210Z,996.9
2023-03-26T07:40:26.940Z,996.9
2023-03-26T07:41:26.960Z,996.9
2023-03-26T07:42:26.911Z,996.9
2023-03-26T07:43:27.093Z,997.0
2023-03-26T07:44:27.015Z,997.0
2023-03-26T07:45:26.968Z,997.1
2023-03-26T07:46:26.949Z,997.1
2023-03-26T07:47:27.045Z,997.2
2023-03-26T07:48:27.003Z,997.0
2023-03-26T07:49:27.330Z,996.9
2023-03-26T07:50:26.976Z,997.0
2023-03-26T07:51:27.013Z,997.0
2023-03-26T07:52:26.984Z,996.9
2023-03-26T07:53:26.975Z,997.0
2023-03-26T07:54:26.992Z,997.0
2023-03-26T07:55:27.008Z,996.9
2023-03-26T07:56:27.032Z,997.0
2023-03-26T07:57:27.119Z,997.0
2023-03-26T07:58:27.030Z,996.9
2023-03-26T07:59:27.036Z,997.0
2023-03-26T08:00:27.034Z,996.9
2023-03-26T08:01:27.077Z,997.0
2023-03-26T08:02:27.126Z,996.8
2023-03-26T08:03:27.566Z,997.0
2023-03-26T08:04:27.364Z,996.9
2023-03-26T08:05:27.077Z,996.9
2023-03-26T08:06:27.094Z,996.9
2023-03-26T08:07:27.081Z,996.9
2023-03-26T08:08:27.094Z,997.0
2023-03-26T08:09:27.084Z,997.1
2023-03-26T08:10:27.125Z,997.0
2023-03-26T08:11:27.116Z,997.0
2023-03-26T08:12:27.122Z,997.0
2023-03-26T08:13:27.117Z,997.0
2023-03-26T08:14:27.124Z,996.9
2023-03-26T08:15:27.222Z,997.1
2023-03-26T08:16:27.151Z,997.1
2023-03-26T08:17:31.193Z,996.8
2023-03-26T08:18:27.302Z,996.9
2023-03-26T08:19:27.176Z,997.0
2023-03-26T08:20:27.171Z,996.9
2023-03-26T08:21:27.230Z,997.0
2023-03-26T08:22:27.214Z,997.0
2023-03-26T08:23:27.232Z,997.0
2023-03-26T08:24:27.221Z,997.0
2023-03-26T08:25:27.219Z,997.0
2023-03-26T08:26:27.230Z,997.0
2023-03-26T08:27:27.313Z,997.0
2023-03-26T08:28:27.346Z,996.9
2023-03-26T08:29:27.382Z,997.0
2023-03-26T08:30:27.261Z,996.9
2023-03-26T08:31:27.340Z,996.9
2023-03-26T08:32:27.335Z,997.0
2023-03-26T08:33:27.311Z,996.9
2023-03-26T08:34:27.303Z,997.0
2023-03-26T08:35:27.436Z,997.0
2023-03-26T08:36:27.308Z,996.9
2023-03-26T08:37:27.488Z,996.9
2023-03-26T08:38:27.321Z,997.0
2023-03-26T08:39:27.336Z,997.0
2023-03-26T08:40:27.341Z,997.0
2023-03-26T08:41:27.349Z,997.0
2023-03-26T08:42:27.368Z,996.9
2023-03-26T08:43:27.372Z,997.0
2023-03-26T08:44:27.367Z,997.0
2023-03-26T08:45:27.389Z,997.0
2023-03-26T08:46:27.495Z,997.1
2023-03-26T08:47:27.437Z,997.1
2023-03-26T08:48:27.407Z,997.0
2023-03-26T08:49:29.833Z,997.0
2023-03-26T08:50:27.437Z,997.1
2023-03-26T08:51:27.440Z,997.1
2023-03-26T08:52:27.458Z,997.0
2023-03-26T08:53:27.450Z,997.0
2023-03-26T08:54:27.451Z,997.1
2023-03-26T08:55:27.464Z,997.2
2023-03-26T08:56:27.479Z,997.0
2023-03-26T08:57:27.475Z,997.1
2023-03-26T08:58:27.473Z,997.1
2023-03-26T08:59:27.489Z,997.1
2023-03-26T09:00:27.498Z,997.0
2023-03-26T09:01:27.540Z,997.0
2023-03-26T09:02:27.572Z,997.0
2023-03-26T09:03:27.568Z,997.0
2023-03-26T09:04:27.535Z,996.9
2023-03-26T09:05:27.523Z,996.9
2023-03-26T09:06:27.540Z,997.0
2023-03-26T09:07:27.554Z,996.9
2023-03-26T09:08:30.498Z,996.8
2023-03-26T09:09:27.555Z,996.9
2023-03-26T09:10:27.578Z,996.9
2023-03-26T09:11:27.571Z,997.0
2023-03-26T09:12:27.581Z,996.9
2023-03-26T09:13:27.588Z,996.9
2023-03-26T09:14:27.621Z,997.0
2023-03-26T09:15:27.598Z,996.9
2023-03-26T09:16:27.716Z,996.9
2023-03-26T09:17:27.708Z,996.9
2023-03-26T09:18:27.627Z,997.0
2023-03-26T09:19:27.632Z,996.9
2023-03-26T09:20:27.665Z,996.9
2023-03-26T09:21:27.655Z,996.9
2023-03-26T09:22:27.666Z,997.0
2023-03-26T09:23:27.659Z,996.9
2023-03-26T09:24:27.901Z,997.0
2023-03-26T09:25:27.677Z,997.1
2023-03-26T09:26:27.686Z,996.9
2023-03-26T09:27:27.712Z,997.0
2023-03-26T09:28:27.706Z,997.0
2023-03-26T09:29:27.705Z,996.9
2023-03-26T09:30:27.710Z,997.0
2023-03-26T09:31:27.796Z,997.0
2023-03-26T09:32:27.786Z,996.9
2023-03-26T09:33:27.736Z,996.9
2023-03-26T09:34:27.746Z,997.0
2023-03-26T09:35:27.833Z,996.8
2023-03-26T09:36:27.762Z,996.9
2023-03-26T09:37:27.768Z,996.9
2023-03-26T09:38:27.801Z,996.8
2023-03-26T09:39:27.786Z,996.9
2023-03-26T09:40:27.788Z,996.9
2023-03-26T09:41:27.808Z,997.0
2023-03-26T09:42:27.816Z,997.0
2023-03-26T09:43:27.809Z,997.0
2023-03-26T09:44:27.828Z,997.0
2023-03-26T09:45:27.903Z,997.0
2023-03-26T09:46:27.838Z,997.1
2023-03-26T09:47:27.938Z,997.0
2023-03-26T09:48:27.854Z,997.0
2023-03-26T09:49:27.902Z,997.0
2023-03-26T09:50:27.868Z,997.0
2023-03-26T09:51:27.892Z,997.0
2023-03-26T09:52:27.888Z,997.1
2023-03-26T09:53:27.894Z,997.1
2023-03-26T09:54:27.902Z,997.1
2023-03-26T09:55:27.907Z,997.1
2023-03-26T09:56:27.932Z,997.0
2023-03-26T09:57:28.053Z,997.0
2023-03-26T09:58:27.923Z,997.0
2023-03-26T09:59:27.971Z,996.9
2023-03-26T10:00:27.948Z,997.0
2023-03-26T10:01:28.014Z,997.0
2023-03-26T10:02:45.738Z,996.9
2023-03-26T10:03:28.161Z,996.9
2023-03-26T10:04:28.058Z,997.0
2023-03-26T10:05:28.003Z,997.1
2023-03-26T10:06:28.040Z,997.1
2023-03-26T10:07:28.014Z,997.1
2023-03-26T10:08:31.715Z,997.2
2023-03-26T10:09:28.046Z,997.1
2023-03-26T10:10:28.064Z,997.1
2023-03-26T10:11:28.050Z,997.1
2023-03-26T10:12:28.051Z,997.2
2023-03-26T10:13:28.062Z,997.2
2023-03-26T10:14:28.072Z,997.2
2023-03-26T10:15:28.096Z,997.1
2023-03-26T10:16:28.213Z,997.1
2023-03-26T10:17:28.130Z,997.1
2023-03-26T10:18:30.328Z,997.1
2023-03-26T10:19:28.099Z,997.1
2023-03-26T10:20:28.109Z,997.1
2023-03-26T10:21:28.722Z,997.1
2023-03-26T10:22:28.195Z,997.0
2023-03-26T10:23:28.139Z,997.1
2023-03-26T10:24:28.149Z,997.0
2023-03-26T10:25:28.162Z,997.1
2023-03-26T10:26:28.152Z,997.1
2023-03-26T10:27:28.194Z,997.2
2023-03-26T10:28:28.165Z,997.1
2023-03-26T10:29:28.281Z,997.1
2023-03-26T10:30:28.267Z,997.1
2023-03-26T10:31:28.501Z,997.2
2023-03-26T10:32:28.261Z,997.3
2023-03-26T10:33:28.215Z,997.2
2023-03-26T10:34:29.879Z,997.2
2023-03-26T10:35:28.256Z,997.2
2023-03-26T10:36:28.238Z,997.1
2023-03-26T10:37:28.244Z,997.1
2023-03-26T10:38:28.254Z,997.1
2023-03-26T10:39:39.388Z,997.1
2023-03-26T10:40:28.269Z,997.2
2023-03-26T10:41:28.274Z,997.0
2023-03-26T10:42:28.285Z,997.1
2023-03-26T10:43:28.327Z,997.2
2023-03-26T10:44:28.305Z,997.0
2023-03-26T10:45:28.382Z,997.1
2023-03-26T10:46:28.407Z,997.1
2023-03-26T10:47:28.429Z,997.1
2023-03-26T10:48:28.335Z,997.3
2023-03-26T10:49:28.368Z,997.2
2023-03-26T10:50:28.359Z,997.2
2023-03-26T10:51:28.362Z,997.2
2023-03-26T10:52:28.375Z,997.2
2023-03-26T10:53:28.375Z,997.2
2023-03-26T10:54:28.373Z,997.3
2023-03-26T10:55:28.523Z,997.2
2023-03-26T10:56:28.405Z,997.2
2023-03-26T10:57:28.420Z,997.1
2023-03-26T10:58:28.418Z,997.1
2023-03-26T10:59:28.413Z,997.2
2023-03-26T11:00:28.441Z,997.0
2023-03-26T11:01:28.532Z,997.1
2023-03-26T11:02:30.789Z,997.1
2023-03-26T11:03:28.460Z,997.1
2023-03-26T11:04:28.465Z,997.0
2023-03-26T11:05:28.668Z,997.1
2023-03-26T11:06:28.483Z,997.0
2023-03-26T11:07:28.496Z,997.0
2023-03-26T11:08:32.274Z,997.0
2023-03-26T11:09:28.522Z,997.0
2023-03-26T11:10:28.515Z,997.0
2023-03-26T11:11:28.518Z,997.1
2023-03-26T11:12:28.819Z,997.0
2023-03-26T11:13:28.622Z,997.1
2023-03-26T11:14:35.567Z,997.1
2023-03-26T11:15:28.657Z,997.1
2023-03-26T11:16:28.581Z,997.2
2023-03-26T11:17:39.886Z,997.2
2023-03-26T11:18:28.727Z,997.1
2023-03-26T11:19:28.610Z,997.1
2023-03-26T11:20:28.632Z,997.2
2023-03-26T11:21:28.633Z,997.1
2023-03-26T11:22:28.638Z,997.1
2023-03-26T11:23:28.630Z,997.1
2023-03-26T11:24:28.657Z,997.0
2023-03-26T11:25:28.646Z,997.0
2023-03-26T11:26:28.657Z,997.1
2023-03-26T11:27:28.662Z,997.1
2023-03-26T11:28:28.671Z,997.0
2023-03-26T11:29:33.415Z,997.0
2023-03-26T11:30:28.707Z,997.0
2023-03-26T11:31:28.812Z,997.2
2023-03-26T11:32:28.796Z,997.0
2023-03-26T11:33:33.040Z,997.0
2023-03-26T11:34:28.728Z,997.1
2023-03-26T11:35:40.011Z,997.1
2023-03-26T11:36:28.812Z,997.2
2023-03-26T11:37:28.736Z,997.2
2023-03-26T11:38:28.789Z,997.2
2023-03-26T11:39:28.761Z,997.1
2023-03-26T11:40:28.758Z,997.1
2023-03-26T11:41:28.806Z,997.2
2023-03-26T11:42:28.782Z,997.2
2023-03-26T11:43:28.793Z,997.1
2023-03-26T11:44:28.830Z,997.1
2023-03-26T11:45:28.802Z,997.1
2023-03-26T11:46:28.868Z,997.1
2023-03-26T11:47:28.889Z,997.1
2023-03-26T11:48:28.832Z,997.1
2023-03-26T11:49:28.843Z,997.0
2023-03-26T11:50:28.889Z,997.2
2023-03-26T11:51:28.854Z,997.0
2023-03-26T11:52:28.868Z,997.0
2023-03-26T11:53:28.869Z,997.0
2023-03-26T11:54:28.870Z,996.9
2023-03-26T11:55:28.887Z,997.0
2023-03-26T11:56:28.898Z,997.1
2023-03-26T11:57:29.013Z,997.1
2023-03-26T11:58:28.902Z,997.0
2023-03-26T11:59:28.916Z,997.0
2023-03-26T12:00:28.966Z,997.0
2023-03-26T12:01:28.928Z,997.0
2023-03-26T12:02:29.859Z,997.0
2023-03-26T12:03:28.938Z,997.0
2023-03-26T12:04:32.062Z,996.9
2023-03-26T12:05:28.976Z,996.9
2023-03-26T12:06:29.041Z,996.9
2023-03-26T12:07:28.983Z,997.0
2023-03-26T12:08:28.999Z,996.9
2023-03-26T12:09:28.991Z,997.0
2023-03-26T12:10:29.003Z,997.0
2023-03-26T12:11:29.085Z,997.0
2023-03-26T12:12:29.027Z,997.0
2023-03-26T12:13:29.025Z,997.1
2023-03-26T12:14:29.053Z,997.1
2023-03-26T12:15:29.048Z,997.0
2023-03-26T12:16:29.159Z,996.9
2023-03-26T12:17:32.139Z,997.0
2023-03-26T12:18:29.093Z,996.9
2023-03-26T12:19:29.159Z,997.0
2023-03-26T12:20:29.083Z,996.9
2023-03-26T12:21:29.095Z,996.9
2023-03-26T12:22:29.100Z,997.0
2023-03-26T12:23:29.112Z,997.0
2023-03-26T12:24:29.144Z,997.0
2023-03-26T12:25:29.133Z,997.0
2023-03-26T12:26:29.141Z,997.0
2023-03-26T12:27:29.146Z,997.0
2023-03-26T12:28:29.305Z,997.0
2023-03-26T12:29:29.242Z,997.0
2023-03-26T12:30:29.336Z,997.0
2023-03-26T12:31:29.396Z,997.0
2023-03-26T12:32:46.067Z,996.9
2023-03-26T12:33:29.483Z,996.9
2023-03-26T12:34:29.384Z,996.9
2023-03-26T12:35:29.605Z,996.9
2023-03-26T12:36:29.338Z,997.0
2023-03-26T12:37:29.434Z,996.9
2023-03-26T12:38:29.396Z,996.9
2023-03-26T12:40:08.256Z,996.8
2023-03-26T12:40:29.354Z,996.8
2023-03-26T12:42:26.228Z,996.8
2023-03-26T12:43:51.358Z,996.9
2023-03-26T12:44:51.758Z,997.1
2023-03-26T12:44:52.189Z,996.9
2023-03-26T12:45:29.380Z,997.0
2023-03-26T12:47:54.076Z,996.9
2023-03-26T12:47:55.873Z,996.8
2023-03-26T12:48:29.560Z,996.9
2023-03-26T12:49:29.499Z,996.9
2023-03-26T12:50:35.725Z,996.8
2023-03-26T12:51:29.497Z,996.9
2023-03-26T12:52:29.425Z,997.0
2023-03-26T12:53:29.488Z,996.9
2023-03-26T12:54:29.478Z,996.8
2023-03-26T12:55:29.481Z,996.9
2023-03-26T12:56:29.495Z,996.8
2023-03-26T12:57:29.625Z,996.8
2023-03-26T12:58:29.489Z,996.9
2023-03-26T12:59:29.555Z,996.9
2023-03-26T13:00:29.524Z,996.9
2023-03-26T13:01:29.708Z,997.0
2023-03-26T13:02:29.821Z,997.0
2023-03-26T13:03:29.774Z,997.0
2023-03-26T13:04:29.588Z,996.9
2023-03-26T13:05:29.663Z,997.0
2023-03-26T13:06:29.679Z,996.9
2023-03-26T13:07:29.594Z,996.9
2023-03-26T13:08:29.770Z,996.9
2023-03-26T13:09:29.520Z,996.9